Galileo — SX2040 — position and weather

sailwx.info

Track history (hours):
 
Tides and Currents Weather Stations Pressure Air Temp Water Temp Dewpoint Dewpoint Depression Visibility Wind Speed Wind Dir Waves Ship Positions

Galileo

Last reported at 2014-Aug-30 05:34 UTC. Time now 2014-Aug-30 06:28 UTC.
Position N 37°56' E 023°39'.

Length 40 m; draft 3 m.

Type: Passenger vessel. MMSI: 239299000.

Date/timePositionNaut miles runAvg speedWind from/ knotsBaromVisibWave heightAir tempDewpointWater temp
2014-Aug-30 05:34N 37°56' E 023°39'0 0.0
2014-Aug-30 04:34N 37°56' E 023°39'0 0.0
2014-Aug-30 03:34N 37°56' E 023°39'0 0.0
2014-Aug-30 02:34N 37°56' E 023°39'0 0.0
2014-Aug-30 01:34N 37°56' E 023°39'0 0.0
2014-Aug-30 00:34N 37°56' E 023°39'0 0.0
2014-Aug-29 23:34N 37°56' E 023°39'0 0.0
2014-Aug-29 22:34N 37°56' E 023°39'0 0.0
2014-Aug-29 21:34N 37°56' E 023°39'0 0.0
2014-Aug-29 20:34N 37°56' E 023°39'0 0.0
2014-Aug-29 19:34N 37°56' E 023°39'0 0.0
2014-Aug-29 18:34N 37°56' E 023°39'0 0.0
2014-Aug-29 17:34N 37°56' E 023°39'0 0.0
2014-Aug-29 16:34N 37°56' E 023°39'0 0.0
2014-Aug-29 15:34N 37°56' E 023°39'7 6.8
2014-Aug-29 14:33N 37°51' E 023°34'9 8.8
2014-Aug-29 13:33N 37°46' E 023°24'1 1.4
2014-Aug-29 12:33N 37°45' E 023°26'0 0.0
2014-Aug-29 09:15N 37°45' E 023°26'3 3.7
2014-Aug-29 08:33N 37°43' E 023°23'0 0.0
2014-Aug-29 07:33N 37°43' E 023°23'0 0.0
2014-Aug-29 06:33N 37°43' E 023°23'0 0.0
2014-Aug-29 05:31N 37°43' E 023°23'7 7.3
2014-Aug-29 04:31N 37°39' E 023°30'9 9.5
2014-Aug-29 03:33N 37°34' E 023°40'39 9.1
2014-Aug-28 23:17N 37°18' E 024°25'8 9.2
2014-Aug-28 22:28N 37°20' E 024°34'9 9.7
2014-Aug-28 21:30N 37°21' E 024°46'1010.3
2014-Aug-28 20:33N 37°23' E 024°58'4 3.7
2014-Aug-28 19:32N 37°27' E 024°57'0 0.0
2014-Aug-28 18:33N 37°27' E 024°57'0 0.0
2014-Aug-28 17:33N 37°27' E 024°57'0 0.0
2014-Aug-28 16:24N 37°27' E 024°57'0 0.0
2014-Aug-28 15:29N 37°27' E 024°57'0 0.0
2014-Aug-28 14:28N 37°27' E 024°57'0 0.0
2014-Aug-28 13:32N 37°27' E 024°57'0 0.0
2014-Aug-28 12:33N 37°27' E 024°57'0 0.0
2014-Aug-28 11:33N 37°27' E 024°57'0 0.0
2014-Aug-28 10:33N 37°27' E 024°57'0 0.0
2014-Aug-28 09:33N 37°27' E 024°57'2 1.7
2014-Aug-28 08:27N 37°25' E 024°59'0 0.0
2014-Aug-28 07:22N 37°25' E 024°59'1 1.5
2014-Aug-28 06:33N 37°25' E 025°00'9 9.4
2014-Aug-28 05:33N 37°27' E 025°12'6 6.3
2014-Aug-28 04:33N 37°28' E 025°20'0 0.0
2014-Aug-28 03:31N 37°28' E 025°20'0 0.0
2014-Aug-28 02:26N 37°28' E 025°20'0 0.0
2014-Aug-28 01:32N 37°28' E 025°20'0 0.0
2014-Aug-28 00:33N 37°28' E 025°20'0 0.0
2014-Aug-27 23:27N 37°28' E 025°20'0 0.0
2014-Aug-27 22:33N 37°28' E 025°20'0 0.0
2014-Aug-27 21:33N 37°28' E 025°20'0 0.0
2014-Aug-27 20:33N 37°28' E 025°20'0 0.0
2014-Aug-27 19:31N 37°28' E 025°20'0 0.0
2014-Aug-27 18:32N 37°28' E 025°20'0 0.0
2014-Aug-27 17:33N 37°28' E 025°20'0 0.0
2014-Aug-27 16:33N 37°28' E 025°20'0 0.0
2014-Aug-27 15:33N 37°28' E 025°20'0 0.0
2014-Aug-27 14:34N 37°28' E 025°20'0 0.0
2014-Aug-27 13:33N 37°28' E 025°20'0 0.0
2014-Aug-27 12:34N 37°28' E 025°20'0 0.0
2014-Aug-27 11:31N 37°28' E 025°20'0 0.0
2014-Aug-27 10:32N 37°28' E 025°20'0 0.0
2014-Aug-27 09:33N 37°28' E 025°20'0 0.0
2014-Aug-27 08:32N 37°28' E 025°20'0 0.0
2014-Aug-27 07:33N 37°28' E 025°20'0 0.0
2014-Aug-27 06:33N 37°28' E 025°20'5 3.9
2014-Aug-27 05:19N 37°23' E 025°17'7 9.4
2014-Aug-27 04:34N 37°17' E 025°14'10 9.4
2014-Aug-27 03:32N 37°08' E 025°09'3 2.8
2014-Aug-27 02:29N 37°05' E 025°09'0 0.0
2014-Aug-27 01:28N 37°05' E 025°09'0 0.0
2014-Aug-27 00:28N 37°05' E 025°09'0 0.0
2014-Aug-26 23:32N 37°05' E 025°09'0 0.0
2014-Aug-26 22:25N 37°05' E 025°09'0 0.0
2014-Aug-26 21:32N 37°05' E 025°09'0 0.0
2014-Aug-26 20:28N 37°05' E 025°09'0 0.0
2014-Aug-26 19:20N 37°05' E 025°09'0 0.0
2014-Aug-26 17:04N 37°05' E 025°09'0 0.0
2014-Aug-26 16:12N 37°05' E 025°09'0 0.0
2014-Aug-26 15:32N 37°05' E 025°09'0 0.0
2014-Aug-26 14:33N 37°05' E 025°09'0 0.0
2014-Aug-26 13:33N 37°05' E 025°09'0 0.0
2014-Aug-26 12:32N 37°05' E 025°09'0 0.0
2014-Aug-26 11:31N 37°05' E 025°09'3 0.8
2014-Aug-26 07:34N 37°05' E 025°05'8 8.3
2014-Aug-26 06:34N 36°59' E 024°57'8 7.7
2014-Aug-26 05:33N 36°52' E 025°02'9 9.3
2014-Aug-26 04:34N 36°45' E 025°09'9 9.1
2014-Aug-26 03:33N 36°38' E 025°15'9 9.0
2014-Aug-26 02:34N 36°29' E 025°20'5 0.2
2014-Aug-25 05:04N 36°26' E 025°24'5 9.6
2014-Aug-25 04:33N 36°29' E 025°19'10 9.5
2014-Aug-25 03:34N 36°33' E 025°08'9 8.9
2014-Aug-25 02:33N 36°36' E 024°58'1 1.2
2014-Aug-25 01:34N 36°37' E 024°57'0 0.0
2014-Aug-25 00:34N 36°37' E 024°57'0 0.0
2014-Aug-24 23:33N 36°37' E 024°57'0 0.0
2014-Aug-24 22:34N 36°37' E 024°57'0 0.0
2014-Aug-24 21:34N 36°37' E 024°57'0 0.0
2014-Aug-24 20:33N 36°37' E 024°57'0 0.0
2014-Aug-24 19:33N 36°37' E 024°57'0 0.0
2014-Aug-24 18:33N 36°37' E 024°57'0 0.0
2014-Aug-24 17:34N 36°37' E 024°57'0 0.0
2014-Aug-24 16:34N 36°37' E 024°57'0 0.0
2014-Aug-24 15:33N 36°37' E 024°57'0 0.0
2014-Aug-24 14:33N 36°37' E 024°57'0 0.0
2014-Aug-24 13:34N 36°37' E 024°57'6 6.3
2014-Aug-24 12:33N 36°41' E 024°51'9 9.5
2014-Aug-24 11:34N 36°44' E 024°40'5 1.0
2014-Aug-24 06:33N 36°48' E 024°36'9 9.0
2014-Aug-24 05:34N 36°55' E 024°30'57 9.4
2014-Aug-23 23:33N 37°32' E 023°36'8 7.4
2014-Aug-23 22:26N 37°32' E 023°25'27 1.4
2014-Aug-23 03:34N 37°56' E 023°39'0 0.0
2014-Aug-23 02:33N 37°56' E 023°39'0 0.0
2014-Aug-23 01:34N 37°56' E 023°39'0 0.0
2014-Aug-23 00:34N 37°56' E 023°39'0 0.0
2014-Aug-22 23:33N 37°56' E 023°39'0 0.0
2014-Aug-22 22:34N 37°56' E 023°39'0 0.0
2014-Aug-22 21:34N 37°56' E 023°39'0 0.0
2014-Aug-22 20:34N 37°56' E 023°39'0 0.0
2014-Aug-22 19:34N 37°56' E 023°39'0 0.0
2014-Aug-22 18:34N 37°56' E 023°39'0 0.0
2014-Aug-22 17:34N 37°56' E 023°39'0 0.0
2014-Aug-22 16:34N 37°56' E 023°39'0 0.0
2014-Aug-22 15:34N 37°56' E 023°39'8 8.3
2014-Aug-22 14:34N 37°48' E 023°36'1010.3
2014-Aug-22 13:33N 37°38' E 023°31'9 8.0
2014-Aug-22 12:26N 37°30' E 023°27'0 0.0
2014-Aug-22 09:10N 37°30' E 023°27'1 1.0
2014-Aug-22 08:33N 37°30' E 023°28'0 0.0
2014-Aug-22 07:25N 37°30' E 023°28'3 3.1
2014-Aug-22 06:33N 37°29' E 023°31'38 9.3
2014-Aug-22 02:27N 37°06' E 024°09'10 9.9
2014-Aug-22 01:29N 37°01' E 024°19'910.1
2014-Aug-22 00:32N 36°55' E 024°29'9 9.6
2014-Aug-21 23:33N 36°49' E 024°38'9 9.5
2014-Aug-21 22:33N 36°44' E 024°48'10 9.5
2014-Aug-21 21:33N 36°38' E 024°57'1 1.1
2014-Aug-21 20:33N 36°37' E 024°57'0 0.0
2014-Aug-21 19:34N 36°37' E 024°57'0 0.0
2014-Aug-21 18:33N 36°37' E 024°57'0 0.0
2014-Aug-21 17:33N 36°37' E 024°57'0 0.0
2014-Aug-21 16:34N 36°37' E 024°57'0 0.0
2014-Aug-21 15:33N 36°37' E 024°57'0 0.0
2014-Aug-21 14:34N 36°37' E 024°57'0 0.0
2014-Aug-21 13:33N 36°37' E 024°57'0 0.0
2014-Aug-21 12:33N 36°37' E 024°57'2 2.0
2014-Aug-21 11:33N 36°35' E 024°55'4 0.8
2014-Aug-21 06:34N 36°34' E 025°00'1010.3
2014-Aug-21 05:34N 36°30' E 025°12'9 9.3
2014-Aug-21 04:33N 36°27' E 025°23'  
Track history (hours):
 
Tides and Currents Weather Stations Pressure Air Temp Water Temp Dewpoint Dewpoint Depression Visibility Wind Speed Wind Dir Waves Ship Positions

Galileo

Last reported at 2014-Aug-30 05:34 UTC. Time now 2014-Aug-30 06:28 UTC.
Position N 37°56' E 023°39'.

Length 40 m; draft 3 m.

Type: Passenger vessel. MMSI: 239299000.

Date/timePositionNaut miles runAvg speedWind from/ knotsBaromVisibWave heightAir tempDewpointWater temp
2014-Aug-30 05:34N 37°56' E 023°39'0 0.0
2014-Aug-30 04:34N 37°56' E 023°39'0 0.0
2014-Aug-30 03:34N 37°56' E 023°39'0 0.0
2014-Aug-30 02:34N 37°56' E 023°39'0 0.0
2014-Aug-30 01:34N 37°56' E 023°39'0 0.0
2014-Aug-30 00:34N 37°56' E 023°39'0 0.0
2014-Aug-29 23:34N 37°56' E 023°39'0 0.0
2014-Aug-29 22:34N 37°56' E 023°39'0 0.0
2014-Aug-29 21:34N 37°56' E 023°39'0 0.0
2014-Aug-29 20:34N 37°56' E 023°39'0 0.0
2014-Aug-29 19:34N 37°56' E 023°39'0 0.0
2014-Aug-29 18:34N 37°56' E 023°39'0 0.0
2014-Aug-29 17:34N 37°56' E 023°39'0 0.0
2014-Aug-29 16:34N 37°56' E 023°39'0 0.0
2014-Aug-29 15:34N 37°56' E 023°39'7 6.8
2014-Aug-29 14:33N 37°51' E 023°34'9 8.8
2014-Aug-29 13:33N 37°46' E 023°24'1 1.4
2014-Aug-29 12:33N 37°45' E 023°26'0 0.0
2014-Aug-29 09:15N 37°45' E 023°26'3 3.7
2014-Aug-29 08:33N 37°43' E 023°23'0 0.0
2014-Aug-29 07:33N 37°43' E 023°23'0 0.0
2014-Aug-29 06:33N 37°43' E 023°23'0 0.0
2014-Aug-29 05:31N 37°43' E 023°23'7 7.3
2014-Aug-29 04:31N 37°39' E 023°30'9 9.5
2014-Aug-29 03:33N 37°34' E 023°40'39 9.1
2014-Aug-28 23:17N 37°18' E 024°25'8 9.2
2014-Aug-28 22:28N 37°20' E 024°34'9 9.7
2014-Aug-28 21:30N 37°21' E 024°46'1010.3
2014-Aug-28 20:33N 37°23' E 024°58'4 3.7
2014-Aug-28 19:32N 37°27' E 024°57'0 0.0
2014-Aug-28 18:33N 37°27' E 024°57'0 0.0
2014-Aug-28 17:33N 37°27' E 024°57'0 0.0
2014-Aug-28 16:24N 37°27' E 024°57'0 0.0
2014-Aug-28 15:29N 37°27' E 024°57'0 0.0
2014-Aug-28 14:28N 37°27' E 024°57'0 0.0
2014-Aug-28 13:32N 37°27' E 024°57'0 0.0
2014-Aug-28 12:33N 37°27' E 024°57'0 0.0
2014-Aug-28 11:33N 37°27' E 024°57'0 0.0
2014-Aug-28 10:33N 37°27' E 024°57'0 0.0
2014-Aug-28 09:33N 37°27' E 024°57'2 1.7
2014-Aug-28 08:27N 37°25' E 024°59'0 0.0
2014-Aug-28 07:22N 37°25' E 024°59'1 1.5
2014-Aug-28 06:33N 37°25' E 025°00'9 9.4
2014-Aug-28 05:33N 37°27' E 025°12'6 6.3
2014-Aug-28 04:33N 37°28' E 025°20'0 0.0
2014-Aug-28 03:31N 37°28' E 025°20'0 0.0
2014-Aug-28 02:26N 37°28' E 025°20'0 0.0
2014-Aug-28 01:32N 37°28' E 025°20'0 0.0
2014-Aug-28 00:33N 37°28' E 025°20'0 0.0
2014-Aug-27 23:27N 37°28' E 025°20'0 0.0
2014-Aug-27 22:33N 37°28' E 025°20'0 0.0
2014-Aug-27 21:33N 37°28' E 025°20'0 0.0
2014-Aug-27 20:33N 37°28' E 025°20'0 0.0
2014-Aug-27 19:31N 37°28' E 025°20'0 0.0
2014-Aug-27 18:32N 37°28' E 025°20'0 0.0
2014-Aug-27 17:33N 37°28' E 025°20'0 0.0
2014-Aug-27 16:33N 37°28' E 025°20'0 0.0
2014-Aug-27 15:33N 37°28' E 025°20'0 0.0
2014-Aug-27 14:34N 37°28' E 025°20'0 0.0
2014-Aug-27 13:33N 37°28' E 025°20'0 0.0
2014-Aug-27 12:34N 37°28' E 025°20'0 0.0
2014-Aug-27 11:31N 37°28' E 025°20'0 0.0
2014-Aug-27 10:32N 37°28' E 025°20'0 0.0
2014-Aug-27 09:33N 37°28' E 025°20'0 0.0
2014-Aug-27 08:32N 37°28' E 025°20'0 0.0
2014-Aug-27 07:33N 37°28' E 025°20'0 0.0
2014-Aug-27 06:33N 37°28' E 025°20'5 3.9
2014-Aug-27 05:19N 37°23' E 025°17'7 9.4
2014-Aug-27 04:34N 37°17' E 025°14'10 9.4
2014-Aug-27 03:32N 37°08' E 025°09'3 2.8
2014-Aug-27 02:29N 37°05' E 025°09'0 0.0
2014-Aug-27 01:28N 37°05' E 025°09'0 0.0
2014-Aug-27 00:28N 37°05' E 025°09'0 0.0
2014-Aug-26 23:32N 37°05' E 025°09'0 0.0
2014-Aug-26 22:25N 37°05' E 025°09'0 0.0
2014-Aug-26 21:32N 37°05' E 025°09'0 0.0
2014-Aug-26 20:28N 37°05' E 025°09'0 0.0
2014-Aug-26 19:20N 37°05' E 025°09'0 0.0
2014-Aug-26 17:04N 37°05' E 025°09'0 0.0
2014-Aug-26 16:12N 37°05' E 025°09'0 0.0
2014-Aug-26 15:32N 37°05' E 025°09'0 0.0
2014-Aug-26 14:33N 37°05' E 025°09'0 0.0
2014-Aug-26 13:33N 37°05' E 025°09'0 0.0
2014-Aug-26 12:32N 37°05' E 025°09'0 0.0
2014-Aug-26 11:31N 37°05' E 025°09'3 0.8
2014-Aug-26 07:34N 37°05' E 025°05'8 8.3
2014-Aug-26 06:34N 36°59' E 024°57'8 7.7
2014-Aug-26 05:33N 36°52' E 025°02'9 9.3
2014-Aug-26 04:34N 36°45' E 025°09'9 9.1
2014-Aug-26 03:33N 36°38' E 025°15'9 9.0
2014-Aug-26 02:34N 36°29' E 025°20'5 0.2
2014-Aug-25 05:04N 36°26' E 025°24'5 9.6
2014-Aug-25 04:33N 36°29' E 025°19'10 9.5
2014-Aug-25 03:34N 36°33' E 025°08'9 8.9
2014-Aug-25 02:33N 36°36' E 024°58'1 1.2
2014-Aug-25 01:34N 36°37' E 024°57'0 0.0
2014-Aug-25 00:34N 36°37' E 024°57'0 0.0
2014-Aug-24 23:33N 36°37' E 024°57'0 0.0
2014-Aug-24 22:34N 36°37' E 024°57'0 0.0
2014-Aug-24 21:34N 36°37' E 024°57'0 0.0
2014-Aug-24 20:33N 36°37' E 024°57'0 0.0
2014-Aug-24 19:33N 36°37' E 024°57'0 0.0
2014-Aug-24 18:33N 36°37' E 024°57'0 0.0
2014-Aug-24 17:34N 36°37' E 024°57'0 0.0
2014-Aug-24 16:34N 36°37' E 024°57'0 0.0
2014-Aug-24 15:33N 36°37' E 024°57'0 0.0
2014-Aug-24 14:33N 36°37' E 024°57'0 0.0
2014-Aug-24 13:34N 36°37' E 024°57'6 6.3
2014-Aug-24 12:33N 36°41' E 024°51'9 9.5
2014-Aug-24 11:34N 36°44' E 024°40'5 1.0
2014-Aug-24 06:33N 36°48' E 024°36'9 9.0
2014-Aug-24 05:34N 36°55' E 024°30'57 9.4
2014-Aug-23 23:33N 37°32' E 023°36'8 7.4
2014-Aug-23 22:26N 37°32' E 023°25'27 1.4
2014-Aug-23 03:34N 37°56' E 023°39'0 0.0
2014-Aug-23 02:33N 37°56' E 023°39'0 0.0
2014-Aug-23 01:34N 37°56' E 023°39'0 0.0
2014-Aug-23 00:34N 37°56' E 023°39'0 0.0
2014-Aug-22 23:33N 37°56' E 023°39'0 0.0
2014-Aug-22 22:34N 37°56' E 023°39'0 0.0
2014-Aug-22 21:34N 37°56' E 023°39'0 0.0
2014-Aug-22 20:34N 37°56' E 023°39'0 0.0
2014-Aug-22 19:34N 37°56' E 023°39'0 0.0
2014-Aug-22 18:34N 37°56' E 023°39'0 0.0
2014-Aug-22 17:34N 37°56' E 023°39'0 0.0
2014-Aug-22 16:34N 37°56' E 023°39'0 0.0
2014-Aug-22 15:34N 37°56' E 023°39'8 8.3
2014-Aug-22 14:34N 37°48' E 023°36'1010.3
2014-Aug-22 13:33N 37°38' E 023°31'9 8.0
2014-Aug-22 12:26N 37°30' E 023°27'0 0.0
2014-Aug-22 09:10N 37°30' E 023°27'1 1.0
2014-Aug-22 08:33N 37°30' E 023°28'0 0.0
2014-Aug-22 07:25N 37°30' E 023°28'3 3.1
2014-Aug-22 06:33N 37°29' E 023°31'38 9.3
2014-Aug-22 02:27N 37°06' E 024°09'10 9.9
2014-Aug-22 01:29N 37°01' E 024°19'910.1
2014-Aug-22 00:32N 36°55' E 024°29'9 9.6
2014-Aug-21 23:33N 36°49' E 024°38'9 9.5
2014-Aug-21 22:33N 36°44' E 024°48'10 9.5
2014-Aug-21 21:33N 36°38' E 024°57'1 1.1
2014-Aug-21 20:33N 36°37' E 024°57'0 0.0
2014-Aug-21 19:34N 36°37' E 024°57'0 0.0
2014-Aug-21 18:33N 36°37' E 024°57'0 0.0
2014-Aug-21 17:33N 36°37' E 024°57'0 0.0
2014-Aug-21 16:34N 36°37' E 024°57'0 0.0
2014-Aug-21 15:33N 36°37' E 024°57'0 0.0
2014-Aug-21 14:34N 36°37' E 024°57'0 0.0
2014-Aug-21 13:33N 36°37' E 024°57'0 0.0
2014-Aug-21 12:33N 36°37' E 024°57'2 2.0
2014-Aug-21 11:33N 36°35' E 024°55'4 0.8
2014-Aug-21 06:34N 36°34' E 025°00'1010.3
2014-Aug-21 05:34N 36°30' E 025°12'9 9.3
2014-Aug-21 04:33N 36°27' E 025°23'  

Dump ship's entire track history